Time;durP1;ratioP1;P1;durP2;ratioP2;P2;SDS_P1;SDS_P2;PMS_P1;PMS_P2;Temp;Humidity;BMP_temperature;BMP_pressure;BME280_temperature;BME280_humidity;BME280_pressure;Samples;Min_cycle;Max_cycle;Signal;HPM_P1;HPM_P2
2020/12/12 00:00:53;;;;;;;;;;;;;;;2.30;80.39;98502.41;5042792;28;19931;-71
2020/12/12 00:03:19;;;;;;;;;;;;;;;2.33;80.46;98505.53;5044792;28;19932;-71
2020/12/12 00:05:45;;;;;;;;;;;;;;;2.37;80.24;98508.63;5023989;28;20413;-71
2020/12/12 00:08:12;;;;;;;;;;;;;;;2.33;80.13;98505.53;5031314;28;19972;-71
2020/12/12 00:10:38;;;;;;;;;;;;;;;2.46;81.69;98507.38;5043388;28;20311;-64
2020/12/12 00:13:08;;;;;;;;;;;;;;;2.98;79.00;98501.13;5041683;28;20395;-63
2020/12/12 00:15:37;;;;;;;;;;;;;;;3.02;78.02;98501.56;5047783;28;20365;-64
2020/12/12 00:18:03;;;;;;;;;;;;;;;2.58;78.59;98516.47;5039855;28;20008;-72
2020/12/12 00:20:29;;;;;;;;;;;;;;;2.50;79.21;98508.59;5018506;28;19925;-72
2020/12/12 00:22:56;;;;;;;;;;;;;;;2.30;80.55;98502.41;5044720;28;19960;-72
2020/12/12 00:25:22;;;;;;;;;;;;;;;2.23;80.90;98507.78;5050290;28;19931;-72
2020/12/12 00:27:48;;;;;;;;;;;;;;;2.42;80.73;98502.63;5044833;28;20401;-72
2020/12/12 00:30:14;;;;;;;;;;;;;;;2.26;80.84;98504.69;5039444;28;20020;-72
2020/12/12 00:32:40;;;;;;;;;;;;;;;2.19;81.68;98500.31;5048246;28;20517;-72
2020/12/12 00:35:07;;;;;;;;;;;;;;;2.22;81.27;98495.38;5046425;28;19926;-72
2020/12/12 00:37:33;;;;;;;;;;;;;;;2.20;81.16;98497.44;5041066;28;20008;-72
2020/12/12 00:39:59;;;;;;;;;;;;;;;2.20;81.08;98491.22;5045574;28;19932;-72
2020/12/12 00:42:25;;;;;;;;;;;;;;;2.23;81.69;98490.81;5018144;28;19972;-72
2020/12/12 00:44:52;;;;;;;;;;;;;;;2.20;81.20;98491.22;5026512;28;20020;-72
2020/12/12 00:47:18;;;;;;;;;;;;;;;2.25;81.10;98494.13;5046412;28;19925;-72
2020/12/12 00:49:45;;;;;;;;;;;;;;;2.28;81.09;98491.03;5016376;28;20024;-72
2020/12/12 00:52:11;;;;;;;;;;;;;;;2.27;80.48;98497.44;5049190;28;19925;-72
2020/12/12 00:54:37;;;;;;;;;;;;;;;2.20;81.08;98496.59;5053112;28;19978;-72
2020/12/12 00:57:03;;;;;;;;;;;;;;;2.25;80.56;98499.50;5022851;28;20192;-72
2020/12/12 00:59:30;;;;;;;;;;;;;;;2.05;80.83;98506.72;5041154;28;19932;-72
2020/12/12 01:01:56;;;;;;;;;;;;;;;1.97;81.60;98505.88;5049540;28;19932;-72
2020/12/12 01:04:22;;;;;;;;;;;;;;;1.99;81.40;98506.50;5043229;28;19972;-71
2020/12/12 01:06:49;;;;;;;;;;;;;;;2.05;80.54;98512.91;5048377;28;19932;-72
2020/12/12 01:09:15;;;;;;;;;;;;;;;2.01;81.02;98507.13;5052052;28;19983;-72
2020/12/12 01:11:42;;;;;;;;;;;;;;;1.98;81.09;98512.06;5030418;28;20449;-72
2020/12/12 01:14:08;;;;;;;;;;;;;;;1.99;80.52;98509.19;5043796;28;20008;-72
2020/12/12 01:16:34;;;;;;;;;;;;;;;2.08;80.53;98504.44;5034358;28;20311;-71
2020/12/12 01:19:00;;;;;;;;;;;;;;;2.15;80.24;98512.50;5052921;28;19936;-71
2020/12/12 01:21:26;;;;;;;;;;;;;;;2.03;80.90;98512.28;5042786;28;19925;-72
2020/12/12 01:23:53;;;;;;;;;;;;;;;2.07;81.04;98513.53;5051694;28;19925;-72
2020/12/12 01:26:19;;;;;;;;;;;;;;;2.05;80.61;98510.22;5050536;28;19924;-72
2020/12/12 01:28:45;;;;;;;;;;;;;;;2.03;80.79;98511.47;5035041;28;20313;-72
2020/12/12 01:31:12;;;;;;;;;;;;;;;1.99;80.94;98497.63;5051338;28;20028;-72
2020/12/12 01:33:39;;;;;;;;;;;;;;;2.01;80.79;98501.75;5045293;28;19925;-72
2020/12/12 01:36:06;;;;;;;;;;;;;;;1.98;81.33;98501.31;5051332;28;19936;-72
2020/12/12 01:38:33;;;;;;;;;;;;;;;2.02;80.98;98505.25;5051178;28;19931;-72
2020/12/12 01:40:59;;;;;;;;;;;;;;;2.02;80.78;98505.25;5051289;28;19931;-71
2020/12/12 01:43:25;;;;;;;;;;;;;;;1.96;80.97;98506.91;5044183;28;19979;-72
2020/12/12 01:45:52;;;;;;;;;;;;;;;2.07;80.51;98502.81;5046916;28;19925;-71
2020/12/12 01:48:18;;;;;;;;;;;;;;;2.04;80.33;98505.91;5050562;28;20015;-72
2020/12/12 01:50:44;;;;;;;;;;;;;;;1.99;80.24;98500.28;5052521;28;19940;-72
2020/12/12 01:53:11;;;;;;;;;;;;;;;1.99;80.23;98498.44;5029574;28;19925;-71
2020/12/12 01:55:39;;;;;;;;;;;;;;;1.95;80.87;98501.72;5036700;28;19925;-72
2020/12/12 01:58:05;;;;;;;;;;;;;;;1.96;80.71;98498.84;5032230;28;19928;-72
2020/12/12 02:00:31;;;;;;;;;;;;;;;2.00;80.64;98499.28;5051281;28;19931;-72
2020/12/12 02:02:58;;;;;;;;;;;;;;;1.99;80.50;98506.50;5050874;28;19925;-71
2020/12/12 02:05:40;;;;;;;;;;;;;;;1.99;80.66;98506.50;5052064;28;19948;-71
2020/12/12 02:08:07;;;;;;;;;;;;;;;1.98;80.34;98504.00;5050771;28;20003;-71
2020/12/12 02:10:34;;;;;;;;;;;;;;;1.88;80.67;98503.56;5033966;28;19960;-71
2020/12/12 02:13:00;;;;;;;;;;;;;;;1.99;80.50;98501.13;5032834;28;19951;-72
2020/12/12 02:15:26;;;;;;;;;;;;;;;1.93;80.55;98501.09;5050668;28;19952;-72
2020/12/12 02:17:52;;;;;;;;;;;;;;;1.99;80.22;98500.28;5050279;28;19931;-72
2020/12/12 02:20:19;;;;;;;;;;;;;;;1.94;80.43;98500.91;5050120;28;19964;-72
2020/12/12 02:22:45;;;;;;;;;;;;;;;1.97;80.59;98497.81;5049381;28;20023;-72
2020/12/12 02:25:12;;;;;;;;;;;;;;;2.00;80.28;98497.41;5046821;28;20467;-72
2020/12/12 02:27:38;;;;;;;;;;;;;;;2.13;79.53;98499.28;5027697;28;19987;-72
2020/12/12 02:30:05;;;;;;;;;;;;;;;2.09;79.14;98497.19;5026160;28;19933;-72
2020/12/12 02:32:31;;;;;;;;;;;;;;;2.05;79.62;98499.50;5044892;28;19998;-72
2020/12/12 02:34:57;;;;;;;;;;;;;;;2.11;79.57;98487.06;5033683;28;19929;-72
2020/12/12 02:37:24;;;;;;;;;;;;;;;2.16;79.06;98492.66;5033197;28;20371;-72
2020/12/12 02:39:50;;;;;;;;;;;;;;;2.18;79.00;98487.91;5050591;28;19924;-72
2020/12/12 02:42:16;;;;;;;;;;;;;;;2.18;78.52;98498.66;5030908;28;19940;-72
2020/12/12 02:44:42;;;;;;;;;;;;;;;2.20;78.38;98502.81;5032728;28;20298;-71
2020/12/12 02:47:09;;;;;;;;;;;;;;;2.19;78.57;98503.00;5048701;28;19924;-72
2020/12/12 02:49:35;;;;;;;;;;;;;;;2.26;78.67;98501.16;5049477;28;20002;-72
2020/12/12 02:52:02;;;;;;;;;;;;;;;2.22;78.95;98500.75;5051269;28;20191;-71
2020/12/12 02:54:29;;;;;;;;;;;;;;;2.21;78.95;98504.47;5050431;28;19924;-72
2020/12/12 02:56:55;;;;;;;;;;;;;;;2.23;78.75;98501.56;5049669;28;19936;-72
2020/12/12 02:59:21;;;;;;;;;;;;;;;2.35;78.54;98499.94;5050393;28;19931;-72
2020/12/12 03:01:47;;;;;;;;;;;;;;;2.35;78.35;98500.75;5050255;28;20399;-72
2020/12/12 03:04:14;;;;;;;;;;;;;;;2.26;78.45;98501.16;5050872;28;19924;-72
2020/12/12 03:06:44;;;;;;;;;;;;;;;2.25;78.80;98499.50;5051040;28;19931;-72
2020/12/12 03:09:11;;;;;;;;;;;;;;;2.27;78.69;98494.75;5044604;28;19929;-71
2020/12/12 03:11:37;;;;;;;;;;;;;;;2.26;78.58;98487.72;5037802;28;20058;-72
2020/12/12 03:14:03;;;;;;;;;;;;;;;2.21;78.95;98476.75;5047361;28;19924;-72
2020/12/12 03:16:29;;;;;;;;;;;;;;;2.21;79.08;98487.50;5042698;28;19925;-72
2020/12/12 03:18:56;;;;;;;;;;;;;;;2.13;79.66;98482.31;5010666;28;20398;-71
2020/12/12 03:21:23;;;;;;;;;;;;;;;2.20;79.00;98488.53;5043071;28;20464;-72
2020/12/12 03:23:49;;;;;;;;;;;;;;;2.19;79.26;98482.34;5050651;28;19924;-72
2020/12/12 03:26:15;;;;;;;;;;;;;;;2.29;78.90;98490.84;5033121;28;19931;-72
2020/12/12 03:28:41;;;;;;;;;;;;;;;2.27;79.09;98492.06;5050539;28;19978;-72
2020/12/12 03:31:08;;;;;;;;;;;;;;;2.07;79.97;98491.22;5049688;28;20365;-72
2020/12/12 03:33:34;;;;;;;;;;;;;;;2.12;79.58;98491.41;5049307;28;20382;-72
2020/12/12 03:36:00;;;;;;;;;;;;;;;2.15;79.45;98488.31;5049479;28;19925;-72
2020/12/12 03:38:26;;;;;;;;;;;;;;;2.14;79.57;98492.88;5048806;28;20023;-72
2020/12/12 03:40:52;;;;;;;;;;;;;;;2.11;79.37;98495.97;5050421;28;19924;-71
2020/12/12 03:43:19;;;;;;;;;;;;;;;2.15;79.58;98488.31;5037961;28;19939;-71
2020/12/12 03:45:45;;;;;;;;;;;;;;;2.21;80.69;98487.50;5049568;28;19936;-72
2020/12/12 03:48:12;;;;;;;;;;;;;;;2.16;80.23;98489.97;5004085;23;1409938;-69
2020/12/12 03:50:39;;;;;;;;;;;;;;;2.13;80.34;98493.06;5026591;28;19931;-68
2020/12/12 03:53:05;;;;;;;;;;;;;;;2.16;80.85;98484.59;5055242;28;19943;-69
2020/12/12 03:55:31;;;;;;;;;;;;;;;2.24;81.08;98487.09;5018232;28;19996;-68
2020/12/12 03:57:57;;;;;;;;;;;;;;;2.26;81.61;98485.03;5056081;28;19928;-68
2020/12/12 04:00:23;;;;;;;;;;;;;;;2.14;82.34;98486.66;5054556;28;19968;-68
2020/12/12 04:02:50;;;;;;;;;;;;;;;1.99;85.27;98487.69;5028546;28;20330;-68
2020/12/12 04:05:16;;;;;;;;;;;;;;;1.92;85.54;98484.16;5046182;28;19936;-68
2020/12/12 04:07:42;;;;;;;;;;;;;;;1.99;85.86;98485.00;5033836;28;20409;-67
2020/12/12 04:10:08;;;;;;;;;;;;;;;2.06;85.24;98481.50;5064642;28;19932;-68
2020/12/12 04:12:34;;;;;;;;;;;;;;;2.06;85.08;98479.66;5039316;28;19974;-68
2020/12/12 04:15:02;;;;;;;;;;;;;;;1.98;84.61;98477.97;5021939;28;19925;-69
2020/12/12 04:17:29;;;;;;;;;;;;;;;2.03;84.55;98479.22;5026658;28;20396;-68
2020/12/12 04:19:56;;;;;;;;;;;;;;;2.10;84.26;98483.56;5026586;28;19939;-69
2020/12/12 04:22:22;;;;;;;;;;;;;;;2.09;84.98;98483.75;5032610;28;19929;-68
2020/12/12 04:24:48;;;;;;;;;;;;;;;2.07;84.58;98478.63;5054374;28;19932;-68
2020/12/12 04:27:14;;;;;;;;;;;;;;;2.06;85.03;98485.03;5046110;28;19932;-71
2020/12/12 04:29:41;;;;;;;;;;;;;;;1.98;85.04;98474.47;5038182;28;19986;-69
2020/12/12 04:32:07;;;;;;;;;;;;;;;1.98;85.55;98488.72;5050425;28;19931;-69
2020/12/12 04:34:33;;;;;;;;;;;;;;;1.86;85.96;98476.91;5051597;28;19925;-68
2020/12/12 04:37:00;;;;;;;;;;;;;;;1.96;86.40;98484.59;5057314;28;19933;-69
2020/12/12 04:39:26;;;;;;;;;;;;;;;2.14;85.06;98481.28;5040804;28;19929;-68
2020/12/12 04:41:52;;;;;;;;;;;;;;;2.08;85.41;98482.94;5039514;28;20488;-69
2020/12/12 04:44:19;;;;;;;;;;;;;;;2.08;85.83;98482.13;5021824;28;19975;-69
2020/12/12 04:46:45;;;;;;;;;;;;;;;2.02;85.40;98478.41;5021371;28;19947;-69
2020/12/12 04:49:12;;;;;;;;;;;;;;;2.07;86.04;98475.09;5020712;28;19932;-70
2020/12/12 04:51:38;;;;;;;;;;;;;;;2.05;85.97;98467.25;4987419;28;19961;-69
2020/12/12 04:54:04;;;;;;;;;;;;;;;2.09;85.40;98467.63;5022960;28;19992;-70
2020/12/12 04:56:34;;;;;;;;;;;;;;;2.18;85.05;98477.16;5056434;28;19924;-70
2020/12/12 04:59:00;;;;;;;;;;;;;;;2.33;84.89;98472.44;5055866;28;19925;-71
2020/12/12 05:01:26;;;;;;;;;;;;;;;2.22;84.87;98471.19;5056013;28;20310;-70
2020/12/12 05:03:54;;;;;;;;;;;;;;;2.16;85.61;98473.84;5024316;28;19959;-70
2020/12/12 05:06:20;;;;;;;;;;;;;;;2.24;86.56;98479.03;5040898;28;19968;-70
2020/12/12 05:08:46;;;;;;;;;;;;;;;2.19;87.05;98478.81;5057679;28;20383;-70
2020/12/12 05:11:12;;;;;;;;;;;;;;;2.22;85.70;98478.41;5057573;28;19935;-70
2020/12/12 05:13:39;;;;;;;;;;;;;;;2.13;86.56;98483.16;5046153;28;19947;-70
2020/12/12 05:16:05;;;;;;;;;;;;;;;2.18;88.83;98477.16;5038987;28;20376;-70
2020/12/12 05:18:33;;;;;;;;;;;;;;;2.15;89.13;98482.94;5035142;28;19929;-70
2020/12/12 05:21:00;;;;;;;;;;;;;;;2.14;89.00;98475.91;5058162;28;19925;-71
2020/12/12 05:23:26;;;;;;;;;;;;;;;2.10;88.06;98480.03;5041293;28;19925;-71
2020/12/12 05:25:56;;;;;;;;;;;;;;;2.08;88.69;98482.94;5041473;28;19932;-71
2020/12/12 05:28:22;;;;;;;;;;;;;;;2.06;87.93;98479.66;5025485;28;19925;-72
2020/12/12 05:30:50;;;;;;;;;;;;;;;2.08;87.25;98479.44;5058321;28;19929;-71
2020/12/12 05:33:21;;;;;;;;;;;;;;;2.14;86.82;98476.75;5052617;28;19944;-70
2020/12/12 05:35:47;;;;;;;;;;;;;;;2.14;86.24;98478.59;5055838;28;19996;-71
2020/12/12 05:38:15;;;;;;;;;;;;;;;2.12;87.20;98484.19;5025122;28;20429;-70
2020/12/12 05:40:42;;;;;;;;;;;;;;;2.17;87.07;98483.56;5057577;28;19932;-71
2020/12/12 05:43:10;;;;;;;;;;;;;;;2.08;87.18;98482.94;5045748;28;19969;-71
2020/12/12 05:45:36;;;;;;;;;;;;;;;2.10;88.29;98488.94;5036651;28;19925;-71
2020/12/12 05:48:03;;;;;;;;;;;;;;;2.14;87.08;98489.34;5020125;28;20403;-71
2020/12/12 05:50:29;;;;;;;;;;;;;;;2.21;86.55;98492.88;5022493;28;19925;-71
2020/12/12 05:52:56;;;;;;;;;;;;;;;2.14;87.17;98489.34;5024967;28;19951;-70
2020/12/12 05:55:32;;;;;;;;;;;;;;;2.15;87.46;98486.47;5040751;28;19925;-71
2020/12/12 05:57:58;;;;;;;;;;;;;;;2.17;87.48;98492.47;5039372;28;20017;-70
2020/12/12 06:00:25;;;;;;;;;;;;;;;2.05;86.76;98494.13;5007694;28;19934;-70
2020/12/12 06:03:04;;;;;;;;;;;;;;;2.12;86.35;98502.16;5040006;28;19971;-70
2020/12/12 06:05:31;;;;;;;;;;;;;;;2.15;85.97;98493.69;5040248;28;19925;-70
2020/12/12 06:07:58;;;;;;;;;;;;;;;2.20;86.48;98496.59;5039322;28;20360;-71
2020/12/12 06:10:26;;;;;;;;;;;;;;;2.24;87.01;98497.84;5039335;28;19931;-71
2020/12/12 06:13:05;;;;;;;;;;;;;;;2.22;86.88;98500.75;5038231;28;19978;-71
2020/12/12 06:15:38;;;;;;;;;;;;;;;2.24;86.39;98508.59;5055861;28;19924;-71
2020/12/12 06:18:11;;;;;;;;;;;;;;;2.15;86.24;98501.75;5055536;28;19925;-71
2020/12/12 06:20:38;;;;;;;;;;;;;;;2.17;86.35;98500.53;5052265;28;19933;-70
2020/12/12 06:23:05;;;;;;;;;;;;;;;2.21;85.88;98501.78;5050151;28;20008;-71
2020/12/12 06:25:31;;;;;;;;;;;;;;;2.27;86.65;98502.81;5047911;28;19925;-70
2020/12/12 06:27:57;;;;;;;;;;;;;;;2.27;86.14;98508.19;5037089;28;20303;-71
2020/12/12 06:30:25;;;;;;;;;;;;;;;2.31;85.40;98512.13;5037351;28;19928;-71
2020/12/12 06:33:02;;;;;;;;;;;;;;;2.43;84.96;98507.78;5038570;28;19974;-70
2020/12/12 06:35:31;;;;;;;;;;;;;;;2.31;85.81;98504.91;5053553;28;19975;-71
2020/12/12 06:38:15;;;;;;;;;;;;;;;2.28;85.91;98504.47;5021580;28;19925;-70
2020/12/12 06:40:41;;;;;;;;;;;;;;;2.16;86.18;98506.09;5055373;28;20414;-70
2020/12/12 06:43:27;;;;;;;;;;;;;;;2.30;85.94;98508.63;5047302;28;20278;-70
2020/12/12 06:45:54;;;;;;;;;;;;;;;2.37;85.34;98507.78;5053589;28;19932;-70
2020/12/12 06:48:27;;;;;;;;;;;;;;;2.21;85.59;98517.06;5053872;28;19978;-71
2020/12/12 06:50:54;;;;;;;;;;;;;;;2.36;85.55;98517.72;5037576;28;19929;-70
2020/12/12 06:53:21;;;;;;;;;;;;;;;2.39;84.97;98521.84;5021042;28;19975;-70
2020/12/12 06:56:07;;;;;;;;;;;;;;;2.43;85.08;98518.53;5037321;28;19925;-70
2020/12/12 06:58:33;;;;;;;;;;;;;;;2.46;85.09;98522.66;5053149;28;19933;-70
2020/12/12 07:00:59;;;;;;;;;;;;;;;2.43;85.21;98529.28;5036739;28;19925;-70
2020/12/12 07:03:26;;;;;;;;;;;;;;;2.40;85.70;98529.72;5019892;28;19952;-70
2020/12/12 07:06:03;;;;;;;;;;;;;;;2.44;85.02;98535.47;5036128;28;20382;-70
2020/12/12 07:08:31;;;;;;;;;;;;;;;2.46;85.23;98528.03;5036223;28;19925;-70
2020/12/12 07:10:57;;;;;;;;;;;;;;;2.42;85.02;98527.66;5021084;28;20561;-70
2020/12/12 07:13:23;;;;;;;;;;;;;;;2.44;85.72;98530.94;5020110;28;19936;-70
2020/12/12 07:15:51;;;;;;;;;;;;;;;2.46;85.04;98534.25;5036688;28;19933;-70
2020/12/12 07:18:18;;;;;;;;;;;;;;;2.52;84.83;98533.44;5037658;28;19925;-70
2020/12/12 07:20:45;;;;;;;;;;;;;;;2.40;85.45;98534.25;5031560;28;19925;-70
2020/12/12 07:23:11;;;;;;;;;;;;;;;2.51;84.92;98533.63;5046638;28;19932;-70
2020/12/12 07:25:37;;;;;;;;;;;;;;;2.49;84.91;98544.59;5001843;28;19929;-69
2020/12/12 07:28:04;;;;;;;;;;;;;;;2.52;84.05;98538.81;5034734;28;19986;-70
2020/12/12 07:30:34;;;;;;;;;;;;;;;2.49;84.07;98546.44;5053470;28;19924;-70
2020/12/12 07:33:00;;;;;;;;;;;;;;;2.51;83.75;98545.22;5030693;28;20008;-69
2020/12/12 07:35:27;;;;;;;;;;;;;;;2.44;84.77;98547.06;5042875;28;19929;-70
2020/12/12 07:38:00;;;;;;;;;;;;;;;2.41;84.45;98549.38;5001180;28;19972;-69
2020/12/12 07:40:30;;;;;;;;;;;;;;;2.57;84.35;98552.47;5035762;28;19951;-70
2020/12/12 07:42:56;;;;;;;;;;;;;;;2.65;84.10;98562.19;5029401;28;19972;-70
2020/12/12 07:45:37;;;;;;;;;;;;;;;2.64;83.57;98560.53;5019573;28;20421;-70
2020/12/12 07:48:04;;;;;;;;;;;;;;;2.66;84.03;98570.06;5050958;28;19925;-69
2020/12/12 07:50:31;;;;;;;;;;;;;;;2.71;83.53;98571.31;5008311;28;19929;-69
2020/12/12 07:53:05;;;;;;;;;;;;;;;2.71;83.86;98574.00;5012156;28;19925;-70
2020/12/12 07:55:32;;;;;;;;;;;;;;;2.73;83.95;98577.31;5033532;28;19925;-69
2020/12/12 07:57:59;;;;;;;;;;;;;;;2.82;83.67;98581.44;5018548;28;20016;-70
2020/12/12 08:00:25;;;;;;;;;;;;;;;2.87;83.86;98587.03;5029032;28;19933;-69
2020/12/12 08:02:58;;;;;;;;;;;;;;;2.82;83.45;98586.81;5050112;28;19931;-69
2020/12/12 08:05:24;;;;;;;;;;;;;;;2.85;83.60;98589.09;5032069;28;20560;-69
2020/12/12 08:07:56;;;;;;;;;;;;;;;2.87;84.20;98584.34;5047513;28;19940;-69
2020/12/12 08:10:29;;;;;;;;;;;;;;;2.71;84.19;98590.13;5038690;28;19925;-68
2020/12/12 08:12:56;;;;;;;;;;;;;;;2.73;84.47;98590.75;5020572;28;19999;-69
2020/12/12 08:15:26;;;;;;;;;;;;;;;2.85;84.70;98592.59;5052234;28;20027;-68
2020/12/12 08:17:52;;;;;;;;;;;;;;;2.89;83.91;98593.03;5048972;28;19933;-69
2020/12/12 08:20:25;;;;;;;;;;;;;;;2.79;84.10;98597.97;5031904;28;20015;-69
2020/12/12 08:22:56;;;;;;;;;;;;;;;2.80;85.01;98596.94;5022772;28;20465;-69
2020/12/12 08:25:22;;;;;;;;;;;;;;;2.83;84.07;98594.66;5013366;28;19975;-69
2020/12/12 08:27:48;;;;;;;;;;;;;;;2.95;84.34;98603.78;5049860;28;19950;-68
2020/12/12 08:30:14;;;;;;;;;;;;;;;2.96;83.95;98600.06;5047631;28;19992;-69
2020/12/12 08:32:46;;;;;;;;;;;;;;;3.02;83.83;98601.94;4999838;28;19924;-68
2020/12/12 08:35:24;;;;;;;;;;;;;;;3.01;83.63;98604.84;5035518;28;19959;-68
2020/12/12 08:37:54;;;;;;;;;;;;;;;3.05;84.44;98611.47;5051193;28;20287;-68
2020/12/12 08:40:22;;;;;;;;;;;;;;;3.03;84.06;98606.28;5049853;28;19924;-68
2020/12/12 08:42:55;;;;;;;;;;;;;;;3.10;83.84;98606.28;5037950;28;19929;-68
2020/12/12 08:45:22;;;;;;;;;;;;;;;3.13;84.19;98613.91;5027701;28;19931;-69
2020/12/12 08:47:58;;;;;;;;;;;;;;;3.15;84.52;98614.53;5047231;28;19931;-68
2020/12/12 08:50:24;;;;;;;;;;;;;;;3.07;83.74;98617.47;5046062;28;19925;-68
2020/12/12 08:52:50;;;;;;;;;;;;;;;3.06;83.92;98610.44;5034236;28;19931;-68
2020/12/12 08:55:18;;;;;;;;;;;;;;;3.07;84.58;98625.53;5051694;28;20000;-69
2020/12/12 08:57:56;;;;;;;;;;;;;;;3.10;83.93;98619.75;5031827;28;20442;-68
2020/12/12 09:00:25;;;;;;;;;;;;;;;3.08;83.65;98627.19;5038085;28;19940;-68
2020/12/12 09:03:01;;;;;;;;;;;;;;;3.18;83.82;98624.06;5032662;28;19976;-69
2020/12/12 09:05:34;;;;;;;;;;;;;;;3.19;83.88;98631.94;5050285;28;19925;-68
2020/12/12 09:08:16;;;;;;;;;;;;;;;3.12;84.53;98639.16;5036475;28;20016;-69
2020/12/12 09:10:42;;;;;;;;;;;;;;;3.13;84.20;98643.53;5004340;28;19925;-68
2020/12/12 09:13:09;;;;;;;;;;;;;;;3.24;84.87;98650.16;5052922;28;19974;-69
2020/12/12 09:15:36;;;;;;;;;;;;;;;3.42;84.05;98646.84;5036696;28;20023;-69
2020/12/12 09:18:04;;;;;;;;;;;;;;;3.43;84.30;98643.13;5051130;28;20283;-69
2020/12/12 09:20:30;;;;;;;;;;;;;;;3.48;84.44;98645.97;5053025;28;20344;-69
2020/12/12 09:22:56;;;;;;;;;;;;;;;3.56;84.33;98645.78;5042405;28;19932;-69
2020/12/12 09:25:23;;;;;;;;;;;;;;;3.58;83.18;98647.22;5039722;28;19925;-69
2020/12/12 09:27:49;;;;;;;;;;;;;;;3.61;82.64;98654.06;5019587;28;19925;-69
2020/12/12 09:30:15;;;;;;;;;;;;;;;3.38;82.94;98656.38;5052916;28;20012;-69
2020/12/12 09:32:41;;;;;;;;;;;;;;;3.61;82.71;98645.97;5038031;28;19924;-69
2020/12/12 09:35:08;;;;;;;;;;;;;;;3.65;83.61;98648.03;5038792;28;19951;-69
2020/12/12 09:37:34;;;;;;;;;;;;;;;3.73;82.78;98649.69;5020044;28;19924;-69
2020/12/12 09:40:00;;;;;;;;;;;;;;;3.72;83.13;98652.59;5053602;28;20398;-69
2020/12/12 09:42:27;;;;;;;;;;;;;;;3.83;82.74;98657.31;5048393;28;19933;-69
2020/12/12 09:44:53;;;;;;;;;;;;;;;3.97;81.65;98654.38;5016656;28;19929;-69
2020/12/12 09:47:24;;;;;;;;;;;;;;;3.93;82.77;98660.41;5034619;23;19947;31
2020/12/12 09:49:50;;;;;;;;;;;;;;;4.11;82.08;98657.03;5063308;28;20028;-72
2020/12/12 09:52:16;;;;;;;;;;;;;;;4.08;81.19;98657.47;5051534;28;19936;-71
2020/12/12 09:54:42;;;;;;;;;;;;;;;3.95;80.62;98658.31;5052372;28;19931;-72
2020/12/12 09:57:08;;;;;;;;;;;;;;;4.02;80.90;98657.28;5052225;28;20314;-71
2020/12/12 09:59:35;;;;;;;;;;;;;;;4.24;80.50;98654.28;5034546;28;19932;-71
2020/12/12 10:02:01;;;;;;;;;;;;;;;4.39;80.15;98654.84;5051045;28;19931;-72
2020/12/12 10:04:27;;;;;;;;;;;;;;;4.49;79.42;98644.44;5034867;28;20313;-72
2020/12/12 10:06:53;;;;;;;;;;;;;;;4.61;79.16;98653.47;5051992;28;19931;-72
2020/12/12 10:09:19;;;;;;;;;;;;;;;4.74;79.70;98651.75;5018025;28;19925;-72
2020/12/12 10:11:48;;;;;;;;;;;;;;;4.55;79.20;98646.25;5052391;28;19974;-72
2020/12/12 10:14:14;;;;;;;;;;;;;;;4.71;78.59;98658.41;5049282;28;19931;-72
2020/12/12 10:16:40;;;;;;;;;;;;;;;4.60;78.98;98651.81;5053558;28;19929;-72
2020/12/12 10:19:07;;;;;;;;;;;;;;;4.48;79.49;98661.66;5032991;28;20398;-72
2020/12/12 10:21:33;;;;;;;;;;;;;;;4.76;78.68;98655.88;5058334;28;19925;-70
2020/12/12 10:23:59;;;;;;;;;;;;;;;4.69;78.69;98652.41;5052928;28;19931;-72
2020/12/12 10:26:26;;;;;;;;;;;;;;;4.84;79.37;98652.09;5053025;28;20300;-72
2020/12/12 10:28:52;;;;;;;;;;;;;;;4.75;78.12;98656.09;5068959;28;19960;-72
2020/12/12 10:31:18;;;;;;;;;;;;;;;4.84;78.43;98660.19;5050789;28;19924;-72
2020/12/12 10:33:44;;;;;;;;;;;;;;;4.95;78.83;98662.19;5042975;28;20484;-72
2020/12/12 10:36:23;;;;;;;;;;;;;;;4.88;77.81;98670.31;5051424;28;19925;-72
2020/12/12 10:38:49;;;;;;;;;;;;;;;5.11;77.04;98668.94;5034221;28;19924;-72
2020/12/12 10:41:17;;;;;;;;;;;;;;;5.17;77.37;98668.91;5034023;28;19928;-72
2020/12/12 10:43:44;;;;;;;;;;;;;;;5.08;76.50;98664.81;5050393;28;19925;-72
2020/12/12 10:46:10;;;;;;;;;;;;;;;5.01;77.34;98664.00;5050365;28;19925;-70
2020/12/12 10:48:36;;;;;;;;;;;;;;;5.02;77.85;98665.66;5050130;28;19924;-72
2020/12/12 10:51:03;;;;;;;;;;;;;;;5.09;77.74;98662.94;5051602;28;19951;-70
2020/12/12 10:53:29;;;;;;;;;;;;;;;5.07;76.97;98662.31;5050395;28;19925;-70
2020/12/12 10:55:55;;;;;;;;;;;;;;;5.13;76.56;98661.44;5050912;28;20375;-70
2020/12/12 10:58:35;;;;;;;;;;;;;;;5.11;78.28;98658.13;5051308;28;20298;-70
2020/12/12 11:01:02;;;;;;;;;;;;;;;5.02;78.38;98661.09;5050482;28;20312;-71
2020/12/12 11:03:28;;;;;;;;;;;;;;;5.07;78.58;98668.53;5033532;28;19924;-71
2020/12/12 11:05:54;;;;;;;;;;;;;;;5.30;79.06;98668.78;5050658;28;19931;-70
2020/12/12 11:08:20;;;;;;;;;;;;;;;5.21;77.68;98667.38;5065968;28;20342;-70
2020/12/12 11:10:47;;;;;;;;;;;;;;;5.19;79.21;98664.09;5033902;28;19937;-70
2020/12/12 11:13:21;;;;;;;;;;;;;;;5.10;79.60;98668.13;5014327;28;19929;-70
2020/12/12 11:15:47;;;;;;;;;;;;;;;4.96;79.39;98661.97;5029699;28;19982;-70
2020/12/12 11:18:14;;;;;;;;;;;;;;;4.95;79.18;98670.28;5031778;28;19932;-70
2020/12/12 11:20:40;;;;;;;;;;;;;;;4.69;80.77;98672.09;5049679;28;19931;-70
2020/12/12 11:23:07;;;;;;;;;;;;;;;4.82;80.35;98670.38;5050477;28;19925;-70
2020/12/12 11:25:33;;;;;;;;;;;;;;;4.70;80.77;98671.06;5048995;28;19999;-70
2020/12/12 11:27:59;;;;;;;;;;;;;;;4.91;81.32;98669.88;5051156;28;20390;-70
2020/12/12 11:30:26;;;;;;;;;;;;;;;4.95;81.51;98670.28;5049489;28;19932;-70
2020/12/12 11:32:53;;;;;;;;;;;;;;;5.10;80.20;98668.13;5049620;28;19931;-70
2020/12/12 11:35:26;;;;;;;;;;;;;;;5.12;80.46;98667.91;5034292;28;19931;-71
2020/12/12 11:40:57;;;;;;;;;;;;;;;5.06;80.07;98666.88;5050080;28;20302;-70
2020/12/12 11:46:27;;;;;;;;;;;;;;;5.07;78.73;98671.25;5048825;28;19925;-72
2020/12/12 11:48:54;;;;;;;;;;;;;;;5.11;79.31;98674.34;5045325;28;20502;-72
2020/12/12 11:51:20;;;;;;;;;;;;;;;5.14;79.01;98668.50;5031997;28;19952;-70
2020/12/12 11:53:47;;;;;;;;;;;;;;;5.14;78.60;98669.34;5030572;28;20371;-70
2020/12/12 11:56:17;;;;;;;;;;;;;;;5.11;78.99;98680.56;5049112;28;19947;-70
2020/12/12 11:58:43;;;;;;;;;;;;;;;5.06;79.13;98680.38;5045916;28;20019;-70
2020/12/12 12:01:09;;;;;;;;;;;;;;;5.16;78.81;98677.22;5049885;28;19925;-72
2020/12/12 12:03:36;;;;;;;;;;;;;;;4.99;78.46;98675.03;5066065;28;19963;-70
2020/12/12 12:06:02;;;;;;;;;;;;;;;5.07;79.25;98678.53;5029760;28;19925;-70
2020/12/12 12:11:10;;;;;;;;;;;;;;;5.38;78.65;98673.91;5053066;28;19925;-72
2020/12/12 12:13:36;;;;;;;;;;;;;;;5.37;77.69;98680.34;5054663;28;19925;-70
2020/12/12 12:16:04;;;;;;;;;;;;;;;5.53;77.79;98681.69;5054254;28;20366;-70
2020/12/12 12:18:31;;;;;;;;;;;;;;;5.53;77.35;98688.97;5036548;28;19924;-70
2020/12/12 12:20:57;;;;;;;;;;;;;;;5.61;76.95;98678.69;5052895;28;20284;-70
2020/12/12 12:23:24;;;;;;;;;;;;;;;5.70;76.69;98690.03;5052311;28;20309;-70
2020/12/12 12:25:51;;;;;;;;;;;;;;;5.78;76.06;98675.41;5051860;28;20138;-72
2020/12/12 12:28:18;;;;;;;;;;;;;;;5.82;76.93;98684.75;5053080;28;20640;-72
2020/12/12 12:30:45;;;;;;;;;;;;;;;5.77;76.89;98674.59;5053156;28;19925;-73
2020/12/12 12:33:11;;;;;;;;;;;;;;;5.95;74.80;98680.03;5036880;28;19929;-71
2020/12/12 12:35:38;;;;;;;;;;;;;;;5.97;74.71;98680.66;5018163;28;20287;-72
2020/12/12 12:38:04;;;;;;;;;;;;;;;5.95;75.55;98687.31;5053337;28;20444;-72
2020/12/12 12:40:31;;;;;;;;;;;;;;;5.79;75.94;98691.41;5034885;28;20414;-70
2020/12/12 12:42:57;;;;;;;;;;;;;;;5.88;74.92;98689.25;5052536;28;19932;-70
2020/12/12 12:45:24;;;;;;;;;;;;;;;5.87;75.84;98685.72;5053342;28;20016;-72
2020/12/12 12:47:50;;;;;;;;;;;;;;;5.96;75.75;98694.38;5050769;28;19925;-72
2020/12/12 12:50:17;;;;;;;;;;;;;;;5.81;76.24;98702.84;5052624;28;19928;-72
2020/12/12 12:52:43;;;;;;;;;;;;;;;5.89;75.52;98704.47;5049905;28;19924;-72
2020/12/12 12:55:10;;;;;;;;;;;;;;;5.85;75.49;98700.53;5051612;28;20461;-70
2020/12/12 12:57:37;;;;;;;;;;;;;;;5.88;75.05;98708.19;5033669;28;19925;-70
2020/12/12 13:00:04;;;;;;;;;;;;;;;5.90;76.09;98700.69;5050168;28;19925;-70
2020/12/12 13:02:31;;;;;;;;;;;;;;;5.83;75.89;98700.75;5050049;28;20000;-70
2020/12/12 13:04:57;;;;;;;;;;;;;;;5.71;75.85;98705.22;5050082;28;19932;-70
2020/12/12 13:07:23;;;;;;;;;;;;;;;5.52;77.18;98707.06;5049866;28;20302;-70